Terminal Aerodrome Forecast
Issued by NWS

Home | Current Version | Previous Version | Text Only | Print | Product List | Glossary On
Versions: 1 2 3 4 5 6 7 8 9 10 11 12 13 14 15 16 17 18
000
FTUS44 KLZK 271000 AAA
TAFLIT
TAF AMD
KLIT 271022Z 2710/2806 33004KT P6SM SCT060 BKN100
     FM271500 36008KT P6SM SCT035 BKN060
     FM272000 36010G18KT P6SM SCT045 SCT250
     FM280000 04004KT P6SM SCT100 BKN250=

USA.gov is the U.S. government's official web portal to all federal, state and local government web resources and services.